createdAt,value
2019-05-02T00:04:57.089Z,5.11
2019-05-02T00:10:03.496Z,5.11
2019-05-02T00:15:09.845Z,5.12
2019-05-02T00:20:21.193Z,5.74
2019-05-02T00:25:22.527Z,6.04
2019-05-02T00:30:29.970Z,6.45
2019-05-02T00:35:30.687Z,7.07
2019-05-02T00:40:37.070Z,7.20
2019-05-02T00:45:43.364Z,7.58
2019-05-02T00:50:52.205Z,7.68
2019-05-02T00:55:58.770Z,8.32
2019-05-02T01:01:05.156Z,8.42
2019-05-02T01:06:14.370Z,9.68
2019-05-02T01:11:12.140Z,9.60
2019-05-02T01:16:19.176Z,11.13
2019-05-02T01:21:26.596Z,11.27
2019-05-02T01:26:33.288Z,11.71
2019-05-02T01:31:40.431Z,12.25
2019-05-02T01:36:46.803Z,12.07
2019-05-02T01:41:55.466Z,11.83
2019-05-02T01:47:02.186Z,12.40
2019-05-02T01:52:08.486Z,12.19
2019-05-02T01:57:14.784Z,12.63
2019-05-02T02:02:21.372Z,12.50
2019-05-02T02:07:28.081Z,13.04
2019-05-02T02:12:34.760Z,13.64
2019-05-02T02:17:41.115Z,13.97
2019-05-02T02:22:47.413Z,14.29
2019-05-02T02:27:54.992Z,14.65
2019-05-02T02:33:00.613Z,14.78
2019-05-02T02:38:01.614Z,14.64
2019-05-02T02:43:30.292Z,15.59
2019-05-02T02:48:13.718Z,16.98
2019-05-02T02:53:24.165Z,16.01
2019-05-02T02:58:22.251Z,16.82
2019-05-02T03:03:30.596Z,16.81
2019-05-02T03:08:31.037Z,17.50
2019-05-02T03:13:51.055Z,18.65
2019-05-02T03:18:43.979Z,18.91
2019-05-02T03:24:01.796Z,18.22
2019-05-02T03:28:58.380Z,19.09
2019-05-02T03:34:00.847Z,19.86
2019-05-02T03:38:57.762Z,20.24
2019-05-02T03:44:11.053Z,20.61
2019-05-02T03:49:09.716Z,20.66
2019-05-02T03:54:19.878Z,20.49
2019-05-02T03:59:16.738Z,20.75
2019-05-02T04:04:23.016Z,19.85
2019-05-02T04:09:32.099Z,20.61
2019-05-02T04:14:37.877Z,19.85
2019-05-02T04:19:36.442Z,20.15
2019-05-02T04:24:47.961Z,20.41
2019-05-02T04:29:49.191Z,20.38
2019-05-02T04:34:57.901Z,20.49
2019-05-02T04:40:08.360Z,18.20
2019-05-02T04:45:21.691Z,17.64
2019-05-02T04:50:18.569Z,19.14
2019-05-02T04:55:28.176Z,18.25
2019-05-02T05:00:28.698Z,18.84
2019-05-02T05:05:40.007Z,17.59
2019-05-02T05:10:41.514Z,17.93
2019-05-02T05:15:48.568Z,18.63
2019-05-02T05:20:52.853Z,19.27
2019-05-02T05:25:55.568Z,19.25
2019-05-02T05:30:58.287Z,18.67
2019-05-02T05:36:04.933Z,19.29
2019-05-02T05:41:13.220Z,18.20
2019-05-02T05:46:13.230Z,18.16
2019-05-02T05:51:20.732Z,17.90
2019-05-02T05:56:27.982Z,18.49
2019-05-02T06:01:36.396Z,18.85
2019-05-02T06:06:34.715Z,19.23
2019-05-02T06:11:41.626Z,17.79
2019-05-02T06:16:51.773Z,16.90
2019-05-02T06:21:51.213Z,17.23
2019-05-02T06:26:57.520Z,16.77
2019-05-02T06:32:04.529Z,16.06
2019-05-02T06:37:13.694Z,15.41
2019-05-02T06:42:11.894Z,14.95
2019-05-02T06:47:18.321Z,15.82
2019-05-02T06:52:27.168Z,16.60
2019-05-02T06:57:28.556Z,16.45
2019-05-02T07:02:35.386Z,17.20
2019-05-02T07:07:41.754Z,16.80
2019-05-02T07:12:51.292Z,15.08
2019-05-02T07:17:53.288Z,16.55
2019-05-02T07:22:59.964Z,17.01
2019-05-02T07:28:09.390Z,17.12
2019-05-02T07:33:07.012Z,16.57
2019-05-02T07:38:13.408Z,16.80
2019-05-02T07:43:22.174Z,16.58
2019-05-02T07:48:28.764Z,15.37
2019-05-02T07:53:35.073Z,15.37
2019-05-02T07:58:46.936Z,18.95
2019-05-02T08:03:44.701Z,17.39
2019-05-02T08:08:51.141Z,18.59
2019-05-02T08:14:00.583Z,19.29
2019-05-02T08:19:07.063Z,19.14
2019-05-02T08:24:13.449Z,18.98
2019-05-02T08:29:23.286Z,19.33
2019-05-02T08:34:25.014Z,18.80
2019-05-02T08:39:33.711Z,21.19
2019-05-02T08:44:31.672Z,19.69
2019-05-02T08:49:37.892Z,19.65
2019-05-02T08:54:44.397Z,18.79
2019-05-02T08:59:50.625Z,17.78
2019-05-02T09:04:58.763Z,17.46
2019-05-02T09:10:08.008Z,17.32
2019-05-02T09:15:14.426Z,17.10
2019-05-02T09:20:23.463Z,16.90
2019-05-02T09:25:32.268Z,16.58
2019-05-02T09:30:38.985Z,14.97
2019-05-02T09:35:45.988Z,15.51
2019-05-02T09:40:55.927Z,15.59
2019-05-02T09:45:52.578Z,16.03
2019-05-02T09:51:04.559Z,16.18
2019-05-02T09:56:05.352Z,16.77
2019-05-02T10:01:11.960Z,16.75
2019-05-02T10:06:18.413Z,15.87
2019-05-02T10:11:26.280Z,14.17
2019-05-02T10:16:33.568Z,14.12
2019-05-02T10:21:42.201Z,15.19
2019-05-02T10:26:48.749Z,15.06
2019-05-02T10:31:55.169Z,17.05
2019-05-02T10:37:03.130Z,17.97
2019-05-02T10:42:09.798Z,16.13
2019-05-02T10:47:16.327Z,16.72
2019-05-02T10:52:29.777Z,16.80
2019-05-02T10:57:26.630Z,15.92
2019-05-02T11:02:32.984Z,17.11
2019-05-02T11:07:39.436Z,17.67
2019-05-02T11:12:47.139Z,17.55
2019-05-02T11:17:53.879Z,18.46
2019-05-02T11:23:02.088Z,16.28
2019-05-02T11:28:08.871Z,16.57
2019-05-02T11:33:15.252Z,15.62
2019-05-02T11:38:36.204Z,16.00
2019-05-02T11:43:28.169Z,15.89
2019-05-02T11:48:34.838Z,17.22
2019-05-02T11:53:42.009Z,15.92
2019-05-02T11:58:50.232Z,15.89
2019-05-02T12:03:56.899Z,15.73
2019-05-02T12:09:03.428Z,16.26
2019-05-02T12:14:09.627Z,15.94
2019-05-02T12:19:16.180Z,15.66
2019-05-02T12:24:24.458Z,15.81
2019-05-02T12:29:33.923Z,16.74
2019-05-02T12:35:36.899Z,17.69
2019-05-02T12:39:45.528Z,18.90
2019-05-02T12:44:53.285Z,18.90
2019-05-02T12:49:59.803Z,20.60
2019-05-02T12:55:06.106Z,19.43
2019-05-02T13:00:12.924Z,18.92
2019-05-02T13:05:19.718Z,17.92
2019-05-02T13:10:27.648Z,17.44
2019-05-02T13:15:33.900Z,17.45
2019-05-02T13:20:41.750Z,16.66
2019-05-02T13:25:48.184Z,17.03
2019-05-02T13:30:54.621Z,15.43
2019-05-02T13:36:02.529Z,14.29
2019-05-02T13:41:11.457Z,13.93
2019-05-02T13:46:18.237Z,14.01
2019-05-02T13:51:24.846Z,11.39
2019-05-02T13:56:32.637Z,9.76
2019-05-02T14:01:42.360Z,9.42
2019-05-02T14:06:48.856Z,9.00
2019-05-02T14:11:56.102Z,8.96
2019-05-02T14:17:03.162Z,9.46
2019-05-02T14:22:09.640Z,10.00
2019-05-02T14:27:17.327Z,10.12
2019-05-02T14:32:26.442Z,9.42
2019-05-02T14:37:33.906Z,8.95
2019-05-02T14:42:41.881Z,9.05
2019-05-02T14:47:49.634Z,8.83
2019-05-02T14:52:51.687Z,7.93
2019-05-02T14:58:04.093Z,8.32
2019-05-02T15:03:03.388Z,7.81
2019-05-02T15:08:11.765Z,7.93
2019-05-02T15:13:18.889Z,9.17
2019-05-02T15:18:26.802Z,6.33
2019-05-02T15:23:33.135Z,5.97
2019-05-02T15:28:40.047Z,6.71
2019-05-02T15:33:46.573Z,6.99
2019-05-02T15:38:53.657Z,8.36
2019-05-02T15:44:01.858Z,8.13
2019-05-02T15:49:09.282Z,7.09
2019-05-02T15:54:18.835Z,6.27
2019-05-02T15:59:16.699Z,6.36
2019-05-02T16:04:25.663Z,7.76
2019-05-02T16:09:32.988Z,8.62
2019-05-02T16:14:39.552Z,6.19
2019-05-02T16:19:46.102Z,2.12
2019-05-02T16:24:53.329Z,2.15
2019-05-02T16:30:06.087Z,2.79
2019-05-02T16:35:12.162Z,2.55
2019-05-02T16:40:09.012Z,2.46
2019-05-02T16:45:15.808Z,2.30
2019-05-02T16:50:22.899Z,1.86
2019-05-02T16:55:29.747Z,2.38
2019-05-02T17:00:36.931Z,2.35
2019-05-02T17:05:39.392Z,4.82
2019-05-02T17:10:42.091Z,2.94
2019-05-02T17:15:49.181Z,3.08
2019-05-02T17:20:56.970Z,3.62
2019-05-02T17:26:03.940Z,3.49
2019-05-02T17:31:19.107Z,3.20
2019-05-02T17:36:34.130Z,3.44
2019-05-02T17:51:37.700Z,4.78
2019-05-02T17:56:44.319Z,4.37
2019-05-02T18:01:52.452Z,5.59
2019-05-02T18:12:07.270Z,4.50
2019-05-02T18:27:17.262Z,4.65
2019-05-02T18:37:37.184Z,4.50
2019-05-02T18:47:44.684Z,4.76
2019-05-02T18:52:52.802Z,4.58
2019-05-02T18:58:03.787Z,5.46
2019-05-02T19:03:02.881Z,4.86
2019-05-02T19:08:09.576Z,7.81
2019-05-02T19:13:16.100Z,5.09
2019-05-02T19:18:22.780Z,4.58
2019-05-02T19:38:52.486Z,4.90
2019-05-02T19:43:58.851Z,4.72
2019-05-02T19:49:06.874Z,3.90
2019-05-02T19:54:07.660Z,4.51
2019-05-02T19:59:16.744Z,3.95
2019-05-02T20:04:17.656Z,3.83
2019-05-02T20:14:32.083Z,3.53
2019-05-02T20:19:38.545Z,3.53
2019-05-02T20:24:49.158Z,4.17
2019-05-02T20:34:58.552Z,4.08
2019-05-02T20:50:18.027Z,3.32
2019-05-02T21:05:38.833Z,3.26
2019-05-02T21:10:45.136Z,3.35
2019-05-02T21:15:52.367Z,3.01
2019-05-02T21:20:59.035Z,3.06
2019-05-02T21:26:05.315Z,3.10
2019-05-02T21:31:12.212Z,3.55
2019-05-02T21:36:18.353Z,3.58
2019-05-02T21:41:24.796Z,3.72
2019-05-02T21:46:31.770Z,3.10
2019-05-02T21:51:38.215Z,2.87
2019-05-02T21:56:44.551Z,3.31
2019-05-02T22:01:51.895Z,3.48
2019-05-02T22:06:58.551Z,3.38
2019-05-02T22:12:04.984Z,3.68
2019-05-02T22:22:19.481Z,3.13
2019-05-02T22:27:25.652Z,2.91
2019-05-02T22:37:38.536Z,2.89
2019-05-02T22:42:45.439Z,3.21
2019-05-02T22:47:52.077Z,3.37
2019-05-02T22:52:58.395Z,3.34
2019-05-02T22:58:04.649Z,2.94
2019-05-02T23:03:12.539Z,3.39
2019-05-02T23:08:21.872Z,3.29
2019-05-02T23:13:28.431Z,3.18
2019-05-02T23:18:35.042Z,3.77
2019-05-02T23:23:41.843Z,3.11
2019-05-02T23:28:48.066Z,2.85
2019-05-02T23:33:54.653Z,2.92
2019-05-02T23:39:01.871Z,2.76
2019-05-02T23:44:08.125Z,3.18
2019-05-02T23:49:14.927Z,4.67
2019-05-02T23:54:22.051Z,9.34
2019-05-02T23:59:28.501Z,3.10
